TAF and METAR

METAR for Chania International Airport

LGSA 311250Z 05006KT 9999 FEW018 BKN080 23/14 Q1013
Report created 31. mai 14:50
wind 6 knots from NE (050°) visibility > 10km some clouds (~25% cover) at 1800 feet broken clouds (~75% cover) at 8000 feet Temperature 23° with dewpoint at 14° (Humidity 56.95%) Pressure 1013 hPa

TAF for Chania International Airport

TAF LGSA 311100Z 3112/0112 VRB05KT 9999 SCT020 BKN080 PROB30 TEMPO 0106/0112 5000 SHRA FEW018TCU BKN020 BKN070
Report created 31. mai 13:00

between 31. mai 14:00 - 1. mai 14:00

wind 5 knots from various directions visibility > 10km scattered clouds (~50% cover) at 2000 feet broken clouds (~75% cover) at 8000 feet

probably (~30%) temporarily between 1. mai 08:00 - 1. mai 14:00

visibility 5000 meters rain showers some clouds (~25% cover) at 1800 feet of type towering cumulus broken clouds (~75% cover) at 2000 feet broken clouds (~75% cover) at 7000 feet